Time;durP1;ratioP1;P1;durP2;ratioP2;P2;SDS_P1;SDS_P2;PMS_P1;PMS_P2;Temp;Humidity;BMP_temperature;BMP_pressure;BME280_temperature;BME280_humidity;BME280_pressure;Samples;Min_cycle;Max_cycle;Signal;HPM_P1;HPM_P2
2023/04/23 00:00:36;;;;;;;24.02;12.95;;;;;;;;;;5051438;28;20040;-75
2023/04/23 00:03:09;;;;;;;25.67;12.57;;;;;;;;;;5039973;28;20041;-75
2023/04/23 00:05:36;;;;;;;25.20;13.47;;;;;;;;;;5027937;28;20450;-75
2023/04/23 00:08:08;;;;;;;23.35;12.43;;;;;;;;;;5057917;28;20282;-75
2023/04/23 00:10:40;;;;;;;23.38;12.68;;;;;;;;;;5066962;28;20393;-75
2023/04/23 00:13:06;;;;;;;26.17;12.80;;;;;;;;;;5036176;28;20037;-75
2023/04/23 00:15:38;;;;;;;25.70;12.52;;;;;;;;;;5038774;28;20025;-75
2023/04/23 00:18:10;;;;;;;20.05;12.27;;;;;;;;;;5040879;28;20056;-75
2023/04/23 00:20:35;;;;;;;19.48;11.65;;;;;;;;;;5040222;28;20489;-75
2023/04/23 00:23:08;;;;;;;28.42;12.55;;;;;;;;;;5041516;28;20048;-75
2023/04/23 00:25:40;;;;;;;22.08;11.35;;;;;;;;;;5038758;28;20064;-75
2023/04/23 00:28:05;;;;;;;22.63;12.18;;;;;;;;;;5035195;28;20091;-75
2023/04/23 00:30:38;;;;;;;21.65;11.63;;;;;;;;;;5042305;28;20025;-75
2023/04/23 00:33:10;;;;;;;21.00;12.55;;;;;;;;;;5042352;28;20037;-75
2023/04/23 00:35:35;;;;;;;22.40;12.73;;;;;;;;;;5037786;28;20049;-75
2023/04/23 00:38:08;;;;;;;27.42;12.70;;;;;;;;;;5049207;28;20033;-75
2023/04/23 00:40:40;;;;;;;23.38;12.75;;;;;;;;;;5041301;28;20098;-75
2023/04/23 00:43:06;;;;;;;24.95;12.40;;;;;;;;;;5040022;28;20041;-74
2023/04/23 00:45:39;;;;;;;24.08;13.57;;;;;;;;;;5033426;28;20033;-75
2023/04/23 00:48:11;;;;;;;23.35;12.57;;;;;;;;;;5037195;28;20061;-74
2023/04/23 00:50:36;;;;;;;22.98;13.57;;;;;;;;;;5040732;28;20045;-74
2023/04/23 00:53:09;;;;;;;28.85;13.88;;;;;;;;;;5038335;28;20029;-74
2023/04/23 00:55:41;;;;;;;26.83;13.68;;;;;;;;;;5034133;28;20041;-74
2023/04/23 00:58:07;;;;;;;24.85;13.45;;;;;;;;;;5044191;28;20072;-74
2023/04/23 01:00:47;;;;;;;21.88;12.27;;;;;;;;;;5034099;28;20033;-74
2023/04/23 01:03:20;;;;;;;22.95;12.48;;;;;;;;;;5045543;28;20052;-74
2023/04/23 01:05:53;;;;;;;24.08;12.95;;;;;;;;;;5051208;28;20120;-74
2023/04/23 01:08:18;;;;;;;21.10;12.60;;;;;;;;;;5054808;28;20041;-74
2023/04/23 01:10:51;;;;;;;22.88;12.48;;;;;;;;;;5040265;28;20111;-74
2023/04/23 01:13:25;;;;;;;23.48;12.27;;;;;;;;;;5039444;28;20111;-75
2023/04/23 01:15:57;;;;;;;24.85;13.07;;;;;;;;;;5049249;28;20041;-75
2023/04/23 01:18:30;;;;;;;23.52;12.75;;;;;;;;;;5042722;28;20041;-75
2023/04/23 01:20:55;;;;;;;22.08;12.00;;;;;;;;;;5042233;28;20123;-75
2023/04/23 01:23:27;;;;;;;24.73;13.60;;;;;;;;;;5050947;28;20425;-75
2023/04/23 01:26:00;;;;;;;22.00;13.07;;;;;;;;;;5062369;28;20045;-74
2023/04/23 01:28:25;;;;;;;23.55;12.27;;;;;;;;;;5040948;28;20388;-74
2023/04/23 01:30:58;;;;;;;25.08;13.10;;;;;;;;;;5033746;28;20045;-74
2023/04/23 01:33:30;;;;;;;23.20;12.63;;;;;;;;;;5049557;28;20116;-74
2023/04/23 01:35:55;;;;;;;26.77;13.30;;;;;;;;;;5031769;28;20056;-74
2023/04/23 01:38:27;;;;;;;28.60;13.38;;;;;;;;;;5041076;28;20033;-74
2023/04/23 01:41:00;;;;;;;23.65;12.05;;;;;;;;;;5047415;28;20040;-74
2023/04/23 01:43:25;;;;;;;24.17;13.35;;;;;;;;;;5050225;28;20503;-74
2023/04/23 01:45:58;;;;;;;24.00;13.30;;;;;;;;;;5034365;28;20033;-75
2023/04/23 01:48:31;;;;;;;28.05;13.00;;;;;;;;;;5029875;28;20087;-74
2023/04/23 01:50:56;;;;;;;25.08;12.73;;;;;;;;;;5027989;28;20033;-74
2023/04/23 01:53:28;;;;;;;24.65;13.20;;;;;;;;;;5041436;28;20109;-74
2023/04/23 01:56:01;;;;;;;23.38;12.35;;;;;;;;;;5049719;28;20041;-74
2023/04/23 01:58:26;;;;;;;22.10;12.43;;;;;;;;;;5048356;28;20037;-75
2023/04/23 02:00:58;;;;;;;23.52;13.07;;;;;;;;;;5041483;28;20099;-75
2023/04/23 02:03:32;;;;;;;25.40;12.48;;;;;;;;;;5033758;28;20040;-75
2023/04/23 02:06:05;;;;;;;25.83;12.77;;;;;;;;;;5033700;28;20092;-75
2023/04/23 02:08:37;;;;;;;21.60;11.75;;;;;;;;;;5038261;28;21217;-75
2023/04/23 02:11:02;;;;;;;25.90;12.27;;;;;;;;;;5035926;28;20048;-75
2023/04/23 02:13:34;;;;;;;26.67;12.95;;;;;;;;;;5032804;28;20033;-74
2023/04/23 02:16:06;;;;;;;23.08;12.70;;;;;;;;;;5037170;28;20047;-74
2023/04/23 02:18:31;;;;;;;24.27;12.25;;;;;;;;;;5039951;28;20037;-74
2023/04/23 02:21:03;;;;;;;21.40;11.73;;;;;;;;;;5044900;28;20033;-74
2023/04/23 02:23:35;;;;;;;26.17;12.23;;;;;;;;;;5043506;28;20045;-74
2023/04/23 02:26:00;;;;;;;22.20;11.63;;;;;;;;;;5032764;28;20086;-74
2023/04/23 02:28:32;;;;;;;23.60;12.35;;;;;;;;;;5042018;28;20021;-74
2023/04/23 02:31:04;;;;;;;24.15;12.18;;;;;;;;;;5043818;28;20040;-74
2023/04/23 02:33:29;;;;;;;25.58;12.60;;;;;;;;;;5043405;28;20068;-74
2023/04/23 02:36:01;;;;;;;20.23;11.70;;;;;;;;;;5046426;28;20127;-74
2023/04/23 02:38:33;;;;;;;30.80;12.13;;;;;;;;;;5044609;28;20067;-74
2023/04/23 02:40:58;;;;;;;26.88;12.07;;;;;;;;;;5038774;28;20477;-74
2023/04/23 02:43:30;;;;;;;24.85;11.88;;;;;;;;;;5035684;28;20112;-74
2023/04/23 02:46:08;;;;;;;27.48;12.18;;;;;;;;;;5037064;28;20033;-75
2023/04/23 02:48:40;;;;;;;29.77;11.20;;;;;;;;;;5035456;28;20037;-74
2023/04/23 02:51:15;;;;;;;27.80;12.30;;;;;;;;;;5037719;28;20041;-75
2023/04/23 02:53:47;;;;;;;25.58;12.45;;;;;;;;;;5039830;28;20083;-74
2023/04/23 02:56:12;;;;;;;24.98;12.00;;;;;;;;;;5049356;28;20037;-75
2023/04/23 02:58:44;;;;;;;24.50;12.93;;;;;;;;;;5035897;28;20028;-74
2023/04/23 03:01:16;;;;;;;24.48;12.50;;;;;;;;;;5043075;28;20045;-75
2023/04/23 03:03:41;;;;;;;26.30;13.77;;;;;;;;;;5032846;28;20047;-74
2023/04/23 03:06:14;;;;;;;29.63;13.50;;;;;;;;;;5036922;28;20468;-74
2023/04/23 03:08:46;;;;;;;27.85;13.02;;;;;;;;;;5041408;28;20045;-74
2023/04/23 03:11:11;;;;;;;26.05;13.20;;;;;;;;;;5048291;28;20041;-74
2023/04/23 03:13:43;;;;;;;26.58;12.50;;;;;;;;;;5042051;28;20043;-74
2023/04/23 03:16:15;;;;;;;29.98;13.73;;;;;;;;;;5035806;28;20529;-75
2023/04/23 03:18:41;;;;;;;34.25;13.10;;;;;;;;;;5041167;28;20045;-75
2023/04/23 03:21:13;;;;;;;34.20;13.90;;;;;;;;;;5037335;28;20048;-74
2023/04/23 03:23:45;;;;;;;38.45;13.40;;;;;;;;;;5024297;28;20520;-75
2023/04/23 03:26:10;;;;;;;55.10;13.88;;;;;;;;;;5043418;28;20060;-74
2023/04/23 03:28:42;;;;;;;39.40;13.68;;;;;;;;;;5048479;28;20377;-74
2023/04/23 03:31:14;;;;;;;33.63;13.40;;;;;;;;;;5047752;28;20688;-74
2023/04/23 03:33:39;;;;;;;66.57;13.68;;;;;;;;;;5040096;28;20139;-74
2023/04/23 03:36:12;;;;;;;61.22;13.88;;;;;;;;;;5037956;28;20235;-74
2023/04/23 03:38:44;;;;;;;38.28;13.88;;;;;;;;;;5038688;28;20120;-74
2023/04/23 03:41:09;;;;;;;39.60;12.88;;;;;;;;;;5042946;28;20040;-74
2023/04/23 03:43:42;;;;;;;45.72;12.43;;;;;;;;;;5048164;28;20465;-74
2023/04/23 03:46:14;;;;;;;100.55;14.32;;;;;;;;;;5037342;28;20122;-75
2023/04/23 03:48:39;;;;;;;66.07;13.73;;;;;;;;;;5044626;28;20045;-75
2023/04/23 03:51:12;;;;;;;52.20;13.95;;;;;;;;;;5040624;28;20079;-74
2023/04/23 03:53:45;;;;;;;33.38;12.35;;;;;;;;;;5035358;28;20052;-74
2023/04/23 03:56:10;;;;;;;29.17;13.57;;;;;;;;;;5035871;28;20412;-74
2023/04/23 03:58:42;;;;;;;35.95;15.07;;;;;;;;;;5042634;28;20047;-74
2023/04/23 04:01:14;;;;;;;32.72;14.13;;;;;;;;;;5040925;28;20512;-73
2023/04/23 04:03:39;;;;;;;35.03;15.95;;;;;;;;;;5042139;28;20488;-74
2023/04/23 04:06:12;;;;;;;32.83;15.15;;;;;;;;;;5063106;28;20056;-74
2023/04/23 04:08:44;;;;;;;39.35;15.30;;;;;;;;;;5053279;28;20049;-74
2023/04/23 04:11:09;;;;;;;35.17;15.32;;;;;;;;;;5051811;28;20044;-75
2023/04/23 04:13:41;;;;;;;34.00;16.17;;;;;;;;;;5049565;28;20021;-75
2023/04/23 04:16:13;;;;;;;35.05;16.00;;;;;;;;;;5049220;28;20136;-75
2023/04/23 04:18:38;;;;;;;31.58;14.40;;;;;;;;;;5042808;28;20030;-76
2023/04/23 04:21:10;;;;;;;35.50;14.68;;;;;;;;;;5049630;28;20366;-75
2023/04/23 04:23:43;;;;;;;40.17;16.20;;;;;;;;;;5047329;28;20394;-74
2023/04/23 04:26:08;;;;;;;41.17;14.38;;;;;;;;;;5033047;28;20041;-74
2023/04/23 04:28:41;;;;;;;36.75;14.20;;;;;;;;;;5035148;28;20037;-74
2023/04/23 04:31:14;;;;;;;32.75;14.00;;;;;;;;;;5037448;28;20095;-74
2023/04/23 04:33:40;;;;;;;29.90;14.20;;;;;;;;;;5040072;28;20131;-75
2023/04/23 04:36:13;;;;;;;30.55;14.88;;;;;;;;;;5037642;28;20472;-75
2023/04/23 04:38:45;;;;;;;36.83;15.50;;;;;;;;;;5041912;28;20499;-75
2023/04/23 04:41:12;;;;;;;31.48;14.07;;;;;;;;;;5036038;28;20034;-75
2023/04/23 04:43:44;;;;;;;30.98;14.55;;;;;;;;;;5039096;28;20036;-74
2023/04/23 04:46:19;;;;;;;38.55;15.00;;;;;;;;;;5046883;28;20556;-74
2023/04/23 04:48:52;;;;;;;33.75;14.32;;;;;;;;;;5063355;28;20041;-75
2023/04/23 04:51:25;;;;;;;33.50;15.02;;;;;;;;;;5030524;28;20053;-74
2023/04/23 04:53:50;;;;;;;32.08;14.70;;;;;;;;;;5038547;28;20037;-74
2023/04/23 04:56:22;;;;;;;37.55;14.23;;;;;;;;;;5041493;28;20044;-74
2023/04/23 04:58:55;;;;;;;34.80;15.70;;;;;;;;;;5041781;28;20115;-74
2023/04/23 05:01:23;;;;;;;34.50;14.45;;;;;;;;;;5033806;28;20044;-74
2023/04/23 05:03:55;;;;;;;36.65;14.05;;;;;;;;;;5037533;28;20032;-74
2023/04/23 05:06:27;;;;;;;36.75;14.63;;;;;;;;;;5042194;28;20051;-74
2023/04/23 05:08:53;;;;;;;32.88;14.05;;;;;;;;;;5038041;28;20163;-74
2023/04/23 05:11:26;;;;;;;32.75;13.15;;;;;;;;;;5057183;28;20120;-74
2023/04/23 05:13:58;;;;;;;30.83;13.52;;;;;;;;;;5038135;28;20394;-74
2023/04/23 05:16:23;;;;;;;31.83;12.70;;;;;;;;;;5033814;28;20036;-74
2023/04/23 05:18:56;;;;;;;46.95;15.23;;;;;;;;;;5039917;28;20029;-74
2023/04/23 05:21:28;;;;;;;48.88;14.10;;;;;;;;;;5033760;28;20042;-75
2023/04/23 05:23:54;;;;;;;122.18;14.93;;;;;;;;;;5041978;28;20029;-74
2023/04/23 05:26:26;;;;;;;94.85;14.60;;;;;;;;;;5034718;28;20350;-74
2023/04/23 05:28:58;;;;;;;73.72;14.65;;;;;;;;;;5064432;28;20051;-74
2023/04/23 05:31:23;;;;;;;49.38;15.23;;;;;;;;;;5041967;28;20033;-74
2023/04/23 05:33:55;;;;;;;37.60;14.13;;;;;;;;;;5043583;28;20108;-75
2023/04/23 05:36:27;;;;;;;43.97;12.88;;;;;;;;;;5051130;28;20156;-76
2023/04/23 05:38:52;;;;;;;59.40;13.80;;;;;;;;;;5040962;28;20069;-75
2023/04/23 05:41:24;;;;;;;68.53;15.65;;;;;;;;;;5034124;28;20068;-74
2023/04/23 05:43:56;;;;;;;40.55;13.85;;;;;;;;;;5033903;28;20048;-74
2023/04/23 05:46:21;;;;;;;53.63;15.40;;;;;;;;;;5036918;28;20041;-74
2023/04/23 05:48:53;;;;;;;51.92;14.60;;;;;;;;;;5038501;28;20091;-74
2023/04/23 05:51:26;;;;;;;62.08;14.77;;;;;;;;;;5022802;28;20060;-74
2023/04/23 05:53:51;;;;;;;55.95;14.82;;;;;;;;;;5033750;28;20489;-75
2023/04/23 05:56:24;;;;;;;74.05;14.75;;;;;;;;;;5041032;28;20110;-74
2023/04/23 05:58:56;;;;;;;46.50;13.25;;;;;;;;;;5045775;28;20033;-74
2023/04/23 06:01:22;;;;;;;36.97;13.20;;;;;;;;;;5042161;28;20408;-75
2023/04/23 06:03:54;;;;;;;40.55;13.60;;;;;;;;;;5050863;28;20020;-74
2023/04/23 06:06:26;;;;;;;33.58;12.52;;;;;;;;;;5045244;28;20079;-76
2023/04/23 06:08:52;;;;;;;32.40;13.35;;;;;;;;;;5032771;28;20045;-75
2023/04/23 06:11:24;;;;;;;34.83;13.45;;;;;;;;;;5037234;28;20033;-75
2023/04/23 06:13:56;;;;;;;35.28;13.05;;;;;;;;;;5041826;28;20052;-75
2023/04/23 06:16:22;;;;;;;37.58;16.05;;;;;;;;;;5036303;28;20034;-76
2023/04/23 06:18:55;;;;;;;33.90;14.40;;;;;;;;;;5035560;28;20037;-75
2023/04/23 06:21:27;;;;;;;32.20;13.45;;;;;;;;;;5034594;28;20405;-78
2023/04/23 06:23:53;;;;;;;31.98;15.25;;;;;;;;;;5035097;28;20045;-77
2023/04/23 06:26:25;;;;;;;32.50;13.43;;;;;;;;;;5035252;28;20053;-77
2023/04/23 06:28:57;;;;;;;31.63;13.82;;;;;;;;;;5038923;28;20528;-78
2023/04/23 06:31:22;;;;;;;29.52;12.82;;;;;;;;;;5048701;28;20045;-78
2023/04/23 06:33:54;;;;;;;28.17;13.95;;;;;;;;;;5041976;28;20048;-78
2023/04/23 06:36:26;;;;;;;27.38;13.10;;;;;;;;;;5049504;28;20103;-77
2023/04/23 06:38:51;;;;;;;28.33;13.75;;;;;;;;;;5035136;28;20041;-78
2023/04/23 06:41:23;;;;;;;21.50;13.25;;;;;;;;;;5035243;28;20116;-79
2023/04/23 06:43:55;;;;;;;24.73;13.57;;;;;;;;;;5036334;28;20080;-76
2023/04/23 06:46:20;;;;;;;23.77;13.65;;;;;;;;;;5032721;28;20041;-76
2023/04/23 06:48:52;;;;;;;21.10;13.30;;;;;;;;;;5034204;28;20044;-77
2023/04/23 06:51:25;;;;;;;21.83;12.38;;;;;;;;;;5037774;28;20064;-80
2023/04/23 06:53:51;;;;;;;;;;;;;;;;;;5049908;28;20115;-77
2023/04/23 06:56:25;;;;;;;18.30;11.43;;;;;;;;;;5047420;28;20027;-75
2023/04/23 06:58:57;;;;;;;18.17;10.95;;;;;;;;;;5049327;28;20033;-79
2023/04/23 07:01:22;;;;;;;15.60;9.82;;;;;;;;;;5051109;28;20122;-80
2023/04/23 07:03:54;;;;;;;15.77;10.30;;;;;;;;;;5058174;28;20053;-79
2023/04/23 07:06:26;;;;;;;13.75;8.63;;;;;;;;;;5044036;28;20052;-80
2023/04/23 07:08:52;;;;;;;11.63;8.48;;;;;;;;;;5044333;28;20113;-80
2023/04/23 07:11:24;;;;;;;13.20;8.43;;;;;;;;;;5041015;28;20454;-80
2023/04/23 07:13:57;;;;;;;13.23;9.18;;;;;;;;;;5041283;28;20041;-77
2023/04/23 07:16:23;;;;;;;14.20;8.30;;;;;;;;;;5028555;28;20042;-77
2023/04/23 07:18:55;;;;;;;12.48;8.80;;;;;;;;;;5036069;28;20098;-76
2023/04/23 07:21:27;;;;;;;13.68;8.85;;;;;;;;;;5041723;28;20040;-75
2023/04/23 07:24:05;;;;;;;12.20;8.35;;;;;;;;;;5039854;28;20096;-75
2023/04/23 07:26:37;;;;;;;9.93;7.13;;;;;;;;;;5039780;28;20037;-75
2023/04/23 07:29:13;;;;;;;11.18;7.07;;;;;;;;;;5028848;28;20483;-76
2023/04/23 07:31:45;;;;;;;20.88;7.32;;;;;;;;;;5036416;28;20092;-76
2023/04/23 07:34:11;;;;;;;9.60;7.20;;;;;;;;;;5024308;28;20116;-75
2023/04/23 07:36:43;;;;;;;8.82;6.63;;;;;;;;;;5048550;28;20175;-76
2023/04/23 07:39:15;;;;;;;11.45;7.10;;;;;;;;;;5029894;28;20117;-75
2023/04/23 07:41:40;;;;;;;9.77;6.72;;;;;;;;;;5037585;28;20150;-76
2023/04/23 07:44:13;;;;;;;10.75;6.95;;;;;;;;;;5040714;28;20065;-76
2023/04/23 07:46:45;;;;;;;9.68;6.47;;;;;;;;;;5057490;28;20034;-76
2023/04/23 07:49:10;;;;;;;9.80;7.00;;;;;;;;;;5041370;28;20099;-76
2023/04/23 07:51:42;;;;;;;11.13;7.03;;;;;;;;;;5038956;28;20154;-75
2023/04/23 07:54:14;;;;;;;8.93;7.07;;;;;;;;;;5041666;28;20048;-76
2023/04/23 07:56:40;;;;;;;9.70;6.90;;;;;;;;;;5045918;28;20099;-75
2023/04/23 07:59:12;;;;;;;8.80;6.38;;;;;;;;;;5040713;28;20392;-76
2023/04/23 08:01:44;;;;;;;8.38;6.32;;;;;;;;;;5041535;28;20045;-76
2023/04/23 08:04:11;;;;;;;9.15;5.97;;;;;;;;;;5052374;28;20488;-76
2023/04/23 08:06:43;;;;;;;8.25;5.68;;;;;;;;;;5034576;28;20070;-75
2023/04/23 08:09:15;;;;;;;8.07;5.30;;;;;;;;;;5034355;28;20040;-77
2023/04/23 08:11:40;;;;;;;8.93;6.50;;;;;;;;;;5036287;28;20033;-76
2023/04/23 08:14:13;;;;;;;12.38;6.95;;;;;;;;;;5039294;28;20529;-76
2023/04/23 08:16:45;;;;;;;8.23;6.07;;;;;;;;;;5036438;28;20098;-77
2023/04/23 08:19:10;;;;;;;7.20;5.30;;;;;;;;;;5035072;28;20045;-77
2023/04/23 08:21:43;;;;;;;7.57;5.53;;;;;;;;;;5042010;28;20168;-76
2023/04/23 08:24:15;;;;;;;7.70;5.47;;;;;;;;;;5030876;28;20052;-76
2023/04/23 08:26:40;;;;;;;7.20;5.47;;;;;;;;;;5042408;28;20282;-77
2023/04/23 08:29:12;;;;;;;5.72;4.93;;;;;;;;;;5036938;28;20037;-77
2023/04/23 08:31:44;;;;;;;6.78;5.20;;;;;;;;;;5052517;28;20072;-76
2023/04/23 08:34:24;;;;;;;6.68;5.10;;;;;;;;;;5045433;28;20049;-77
2023/04/23 08:36:56;;;;;;;8.18;4.72;;;;;;;;;;5037400;28;20107;-77
2023/04/23 08:39:21;;;;;;;5.53;4.80;;;;;;;;;;5044513;28;20484;-76
2023/04/23 08:42:01;;;;;;;6.78;5.05;;;;;;;;;;5048612;28;20056;-76
2023/04/23 08:44:34;;;;;;;7.60;5.35;;;;;;;;;;5048349;28;20041;-75
2023/04/23 08:46:59;;;;;;;;;;;;;;;;;;5034154;28;20507;-75
2023/04/23 08:49:35;;;;;;;6.35;3.90;;;;;;;;;;5028587;28;20008;-75
2023/04/23 08:52:15;;;;;;;6.70;4.95;;;;;;;;;;5047330;28;20036;-76
2023/04/23 08:54:55;;;;;;;6.00;4.22;;;;;;;;;;5044541;28;20096;-76
2023/04/23 08:57:29;;;;;;;5.93;4.18;;;;;;;;;;5043318;28;20052;-76
2023/04/23 09:00:04;;;;;;;7.30;5.03;;;;;;;;;;5051954;28;20036;-75
2023/04/23 09:02:37;;;;;;;6.65;4.65;;;;;;;;;;5050441;28;20552;-76
2023/04/23 09:05:10;;;;;;;8.07;4.65;;;;;;;;;;5051621;28;20084;-75
2023/04/23 09:07:36;;;;;;;8.27;4.43;;;;;;;;;;5034830;28;20066;-75
2023/04/23 09:10:10;;;;;;;6.72;4.43;;;;;;;;;;5043486;28;20060;-75
2023/04/23 09:12:43;;;;;;;8.40;4.95;;;;;;;;;;5060827;28;20041;-75
2023/04/23 09:15:15;;;;;;;8.15;4.47;;;;;;;;;;5043418;28;20037;-77
2023/04/23 09:17:50;;;;;;;7.30;4.50;;;;;;;;;;5030273;28;20119;-76
2023/04/23 09:20:22;;;;;;;6.80;4.95;;;;;;;;;;5045365;28;20036;-76
2023/04/23 09:22:50;;;;;;;7.10;4.70;;;;;;;;;;5045876;28;20048;-76
2023/04/23 09:25:27;;;;;;;6.50;4.60;;;;;;;;;;5062140;28;20041;-76
2023/04/23 09:28:02;;;;;;;6.00;4.57;;;;;;;;;;5047081;28;20029;-76
2023/04/23 09:30:34;;;;;;;6.47;4.20;;;;;;;;;;5047126;28;20059;-77
2023/04/23 09:33:06;;;;;;;6.38;4.60;;;;;;;;;;5033382;28;20033;-76
2023/04/23 09:35:31;;;;;;;6.18;4.43;;;;;;;;;;5031462;28;20053;-76
2023/04/23 09:38:06;;;;;;;6.05;4.00;;;;;;;;;;5050966;28;20040;-77
2023/04/23 09:40:38;;;;;;;7.68;4.70;;;;;;;;;;5039520;28;20049;-76
2023/04/23 09:43:11;;;;;;;6.40;4.57;;;;;;;;;;5034936;28;20051;-77
2023/04/23 09:45:36;;;;;;;6.00;4.45;;;;;;;;;;5041801;28;20390;-77
2023/04/23 09:48:08;;;;;;;6.93;4.43;;;;;;;;;;5050480;28;20033;-76
2023/04/23 09:50:45;;;;;;;5.80;4.20;;;;;;;;;;5040362;28;20037;-75
2023/04/23 09:53:18;;;;;;;5.07;3.70;;;;;;;;;;5039378;28;20095;-76
2023/04/23 09:55:44;;;;;;;5.88;4.38;;;;;;;;;;5043253;28;20477;-76
2023/04/23 09:58:20;;;;;;;5.75;3.97;;;;;;;;;;5039408;28;20079;-76
2023/04/23 10:00:52;;;;;;;5.35;3.53;;;;;;;;;;5042518;28;20536;-77
2023/04/23 10:03:32;;;;;;;5.43;3.85;;;;;;;;;;5034208;28;20053;-76
2023/04/23 10:06:04;;;;;;;6.35;3.58;;;;;;;;;;5055262;28;20048;-76
2023/04/23 10:08:30;;;;;;;5.97;3.17;;;;;;;;;;5036422;28;20040;-76
2023/04/23 10:11:03;;;;;;;6.03;3.63;;;;;;;;;;5036727;28;20382;-76
2023/04/23 10:13:35;;;;;;;4.18;2.60;;;;;;;;;;5038239;28;20086;-76
2023/04/23 10:16:01;;;;;;;4.10;2.97;;;;;;;;;;5030931;28;20045;-76
2023/04/23 10:18:36;;;;;;;5.45;2.78;;;;;;;;;;5046385;28;20261;-76
2023/04/23 10:21:08;;;;;;;18.98;2.70;;;;;;;;;;5029214;28;20100;-76
2023/04/23 10:23:35;;;;;;;6.93;3.25;;;;;;;;;;5038576;28;20064;-75
2023/04/23 10:26:08;;;;;;;4.47;2.72;;;;;;;;;;5036355;28;20029;-75
2023/04/23 10:28:44;;;;;;;4.22;3.00;;;;;;;;;;5055299;28;20037;-75
2023/04/23 10:31:16;;;;;;;4.72;3.22;;;;;;;;;;5036437;28;20044;-75
2023/04/23 10:33:49;;;;;;;6.65;3.78;;;;;;;;;;5034542;28;20091;-76
2023/04/23 10:36:24;;;;;;;5.30;3.17;;;;;;;;;;5039051;28;20045;-75
2023/04/23 10:38:59;;;;;;;5.40;3.42;;;;;;;;;;5036264;28;20042;-76
2023/04/23 10:41:35;;;;;;;5.20;3.15;;;;;;;;;;5033362;28;20061;-75
2023/04/23 10:44:11;;;;;;;6.00;3.97;;;;;;;;;;5037766;28;20040;-76
2023/04/23 10:46:43;;;;;;;4.88;3.30;;;;;;;;;;5042053;28;20033;-75
2023/04/23 10:49:15;;;;;;;5.22;3.60;;;;;;;;;;5059181;28;20034;-76
2023/04/23 10:51:41;;;;;;;5.88;3.17;;;;;;;;;;5037714;28;20036;-75
2023/04/23 10:54:15;;;;;;;5.80;3.28;;;;;;;;;;5054024;28;20064;-75
2023/04/23 10:56:57;;;;;;;4.72;3.22;;;;;;;;;;5031647;28;20041;-76
2023/04/23 10:59:29;;;;;;;4.15;2.97;;;;;;;;;;5035731;28;20504;-76
2023/04/23 11:02:06;;;;;;;5.97;3.50;;;;;;;;;;5053905;28;20087;-75
2023/04/23 11:04:41;;;;;;;5.40;3.70;;;;;;;;;;5041289;28;20040;-76
2023/04/23 11:07:13;;;;;;;4.85;3.30;;;;;;;;;;5031443;28;20044;-77
2023/04/23 11:09:52;;;;;;;4.80;2.75;;;;;;;;;;5037036;28;20041;-75
2023/04/23 11:12:28;;;;;;;4.47;2.80;;;;;;;;;;5034066;28;20072;-75
2023/04/23 11:15:01;;;;;;;3.97;2.50;;;;;;;;;;5038356;28;20037;-76
2023/04/23 11:17:33;;;;;;;5.88;3.08;;;;;;;;;;5043513;28;20125;-75
2023/04/23 11:20:19;;;;;;;4.03;3.00;;;;;;;;;;5042917;28;20040;-75
2023/04/23 11:22:51;;;;;;;4.82;3.13;;;;;;;;;;5031117;28;20048;-76
2023/04/23 11:25:29;;;;;;;4.78;2.95;;;;;;;;;;5036224;28;20125;-75
2023/04/23 11:28:01;;;;;;;5.32;3.28;;;;;;;;;;5011953;28;20441;-75
2023/04/23 11:30:28;;;;;;;5.05;3.42;;;;;;;;;;5033311;28;20038;-75
2023/04/23 11:33:01;;;;;;;5.72;3.72;;;;;;;;;;5056321;28;21377;-76
2023/04/23 11:35:39;;;;;;;5.77;3.47;;;;;;;;;;5035916;28;20193;-75
2023/04/23 11:38:14;;;;;;;8.27;3.10;;;;;;;;;;5045116;28;20038;-75
2023/04/23 11:40:47;;;;;;;5.20;3.65;;;;;;;;;;5035624;28;20090;-74
2023/04/23 11:43:28;;;;;;;7.05;3.80;;;;;;;;;;5038146;28;20529;-75
2023/04/23 11:46:00;;;;;;;5.80;4.00;;;;;;;;;;5047978;28;20167;-75
2023/04/23 11:48:32;;;;;;;5.53;3.45;;;;;;;;;;5044372;28;20034;-76
2023/04/23 11:50:57;;;;;;;5.95;3.30;;;;;;;;;;5025219;28;20614;-76
2023/04/23 11:53:29;;;;;;;6.53;3.70;;;;;;;;;;5032671;28;20053;-76
2023/04/23 11:56:01;;;;;;;5.30;3.53;;;;;;;;;;5037263;28;20033;-76
2023/04/23 11:58:26;;;;;;;5.45;3.13;;;;;;;;;;5050589;28;20064;-75
2023/04/23 12:00:59;;;;;;;10.60;3.70;;;;;;;;;;5048516;28;20111;-76
2023/04/23 12:03:31;;;;;;;6.22;3.50;;;;;;;;;;5035511;28;20065;-76
2023/04/23 12:05:57;;;;;;;6.30;3.90;;;;;;;;;;5032142;28;20111;-77
2023/04/23 12:08:42;;;;;;;5.68;4.00;;;;;;;;;;5047482;28;20044;-76
2023/04/23 12:11:07;;;;;;;5.70;4.00;;;;;;;;;;5051789;28;20051;-76
2023/04/23 12:13:40;;;;;;;5.35;3.50;;;;;;;;;;5044559;28;20041;-76
2023/04/23 12:16:12;;;;;;;6.03;4.10;;;;;;;;;;5033239;28;20072;-75
2023/04/23 12:18:52;;;;;;;6.50;4.00;;;;;;;;;;5036009;28;20516;-77
2023/04/23 12:21:24;;;;;;;5.32;3.53;;;;;;;;;;5028124;28;20121;-76
2023/04/23 12:23:57;;;;;;;5.47;3.73;;;;;;;;;;5032374;28;20068;-76
2023/04/23 12:26:31;;;;;;;13.48;7.88;;;;;;;;;;5043707;28;20777;-76
2023/04/23 12:29:06;;;;;;;9.15;5.78;;;;;;;;;;5043620;28;20432;-76
2023/04/23 12:31:38;;;;;;;17.38;9.55;;;;;;;;;;5026000;28;20091;-76
2023/04/23 12:34:15;;;;;;;8.18;5.70;;;;;;;;;;5034884;28;20131;-76
2023/04/23 12:36:50;;;;;;;7.03;4.90;;;;;;;;;;5030193;28;20111;-76
2023/04/23 12:39:30;;;;;;;7.90;4.28;;;;;;;;;;5043216;28;20033;-76
2023/04/23 12:42:12;;;;;;;7.13;4.05;;;;;;;;;;5034812;28;20038;-76
2023/04/23 12:44:44;;;;;;;6.40;3.85;;;;;;;;;;5041541;28;20052;-76
2023/04/23 12:47:10;;;;;;;7.57;4.55;;;;;;;;;;5050035;28;20439;-77
2023/04/23 12:49:44;;;;;;;7.15;4.43;;;;;;;;;;5040479;28;20115;-76
2023/04/23 12:52:16;;;;;;;6.20;4.45;;;;;;;;;;5033798;28;20048;-76
2023/04/23 12:54:43;;;;;;;9.30;5.25;;;;;;;;;;5046633;28;20064;-76
2023/04/23 12:57:21;;;;;;;8.00;4.90;;;;;;;;;;5052624;28;20493;-76
2023/04/23 12:59:53;;;;;;;7.10;4.30;;;;;;;;;;5046002;28;20401;-76
2023/04/23 13:02:26;;;;;;;6.88;4.03;;;;;;;;;;5039711;28;20036;-76
2023/04/23 13:04:53;;;;;;;5.18;3.40;;;;;;;;;;5033992;28;20033;-76
2023/04/23 13:07:25;;;;;;;6.20;3.75;;;;;;;;;;5038223;28;20039;-76
2023/04/23 13:09:58;;;;;;;7.03;3.30;;;;;;;;;;5040750;28;20457;-76
2023/04/23 13:12:24;;;;;;;5.78;3.47;;;;;;;;;;5043208;28;20049;-76
2023/04/23 13:14:55;;;;;;;5.45;3.47;;;;;;;;;;5045398;28;20033;-76
2023/04/23 13:17:27;;;;;;;6.43;3.75;;;;;;;;;;5036483;28;20052;-76
2023/04/23 13:19:53;;;;;;;4.82;3.25;;;;;;;;;;5046645;28;20037;-76
2023/04/23 13:22:27;;;;;;;8.57;4.05;;;;;;;;;;5056222;28;20171;-76
2023/04/23 13:25:03;;;;;;;5.30;3.78;;;;;;;;;;5032446;28;20049;-76
2023/04/23 13:27:35;;;;;;;7.70;4.28;;;;;;;;;;5038945;28;20570;-76
2023/04/23 13:30:00;;;;;;;8.68;4.38;;;;;;;;;;5038761;28;20056;-76
2023/04/23 13:32:32;;;;;;;8.65;4.75;;;;;;;;;;5044587;28;20033;-76
2023/04/23 13:35:05;;;;;;;8.65;4.45;;;;;;;;;;5041179;28;20041;-76
2023/04/23 13:37:30;;;;;;;5.85;4.28;;;;;;;;;;5030420;28;20128;-76
2023/04/23 13:40:03;;;;;;;7.95;4.75;;;;;;;;;;5054342;28;20226;-76
2023/04/23 13:42:35;;;;;;;7.05;4.53;;;;;;;;;;5044670;28;20444;-76
2023/04/23 13:45:03;;;;;;;8.68;4.65;;;;;;;;;;5039939;28;20033;-76
2023/04/23 13:47:35;;;;;;;7.93;4.88;;;;;;;;;;5044230;28;20025;-76
2023/04/23 13:50:09;;;;;;;7.00;4.57;;;;;;;;;;5037085;28;20124;-76
2023/04/23 13:52:36;;;;;;;8.10;5.28;;;;;;;;;;5038754;28;20496;-76
2023/04/23 13:55:09;;;;;;;8.73;5.25;;;;;;;;;;5059139;28;20029;-76
2023/04/23 13:57:41;;;;;;;8.55;5.32;;;;;;;;;;5036771;28;20083;-77
2023/04/23 14:00:07;;;;;;;8.07;4.97;;;;;;;;;;5041320;28;20037;-76
2023/04/23 14:02:39;;;;;;;9.88;4.80;;;;;;;;;;5044681;28;20388;-76
2023/04/23 14:05:11;;;;;;;8.20;4.60;;;;;;;;;;5046827;28;20037;-76
2023/04/23 14:07:36;;;;;;;6.75;4.40;;;;;;;;;;5044506;28;20121;-76
2023/04/23 14:10:09;;;;;;;6.25;4.28;;;;;;;;;;5034497;28;20124;-77
2023/04/23 14:12:41;;;;;;;6.45;3.90;;;;;;;;;;5052891;28;20046;-76
2023/04/23 14:15:07;;;;;;;6.18;3.83;;;;;;;;;;5046230;28;20041;-77
2023/04/23 14:17:41;;;;;;;7.70;3.70;;;;;;;;;;5042767;28;20075;-76
2023/04/23 14:20:18;;;;;;;5.05;3.30;;;;;;;;;;5060721;28;20038;-77
2023/04/23 14:22:54;;;;;;;5.68;3.35;;;;;;;;;;5037686;28;20497;-76
2023/04/23 14:25:34;;;;;;;4.45;3.08;;;;;;;;;;5019517;28;20038;-76
2023/04/23 14:28:09;;;;;;;6.22;2.95;;;;;;;;;;5041245;28;20044;-77
2023/04/23 14:30:41;;;;;;;5.47;3.20;;;;;;;;;;5026425;28;20033;-77
2023/04/23 14:33:06;;;;;;;5.78;3.80;;;;;;;;;;5041311;28;20548;-76
2023/04/23 14:35:38;;;;;;;4.90;2.88;;;;;;;;;;5043124;28;20156;-76
2023/04/23 14:38:10;;;;;;;4.78;3.05;;;;;;;;;;5027939;28;20160;-77
2023/04/23 14:40:35;;;;;;;4.93;3.22;;;;;;;;;;5040818;28;20051;-77
2023/04/23 14:43:08;;;;;;;14.63;10.25;;;;;;;;;;5032907;28;20488;-76
2023/04/23 14:45:40;;;;;;;6.70;2.58;;;;;;;;;;5047591;28;20044;-77
2023/04/23 14:48:05;;;;;;;5.60;2.97;;;;;;;;;;5036886;28;20045;-77
2023/04/23 14:50:38;;;;;;;4.95;2.10;;;;;;;;;;5032955;28;20030;-77
2023/04/23 14:53:10;;;;;;;5.32;2.10;;;;;;;;;;5039323;28;20091;-77